sensor_id;sensor_type;location;lat;lon;timestamp;temperature;humidity
30999;DHT22;20549;50.042;8.968;2022-09-29T00:00:00;9.20;91.90
30999;DHT22;20549;50.042;8.968;2022-09-29T00:02:26;9.20;91.90
30999;DHT22;20549;50.042;8.968;2022-09-29T00:04:53;9.10;92.00
30999;DHT22;20549;50.042;8.968;2022-09-29T00:07:19;9.10;92.10
30999;DHT22;20549;50.042;8.968;2022-09-29T00:09:46;9.10;92.20
30999;DHT22;20549;50.042;8.968;2022-09-29T00:12:12;9.10;92.20
30999;DHT22;20549;50.042;8.968;2022-09-29T00:14:39;9.00;92.20
30999;DHT22;20549;50.042;8.968;2022-09-29T00:17:06;9.00;92.30
30999;DHT22;20549;50.042;8.968;2022-09-29T00:19:32;9.00;92.50
30999;DHT22;20549;50.042;8.968;2022-09-29T00:21:59;8.90;92.60
30999;DHT22;20549;50.042;8.968;2022-09-29T00:24:25;8.90;92.50
30999;DHT22;20549;50.042;8.968;2022-09-29T00:26:52;8.90;92.80
30999;DHT22;20549;50.042;8.968;2022-09-29T00:29:19;8.80;92.90
30999;DHT22;20549;50.042;8.968;2022-09-29T00:31:45;8.80;93.00
30999;DHT22;20549;50.042;8.968;2022-09-29T00:34:12;8.80;93.10
30999;DHT22;20549;50.042;8.968;2022-09-29T00:36:38;8.70;93.20
30999;DHT22;20549;50.042;8.968;2022-09-29T00:39:05;8.70;93.30
30999;DHT22;20549;50.042;8.968;2022-09-29T00:41:33;8.70;93.30
30999;DHT22;20549;50.042;8.968;2022-09-29T00:43:59;8.60;93.40
30999;DHT22;20549;50.042;8.968;2022-09-29T00:46:38;8.60;93.50
30999;DHT22;20549;50.042;8.968;2022-09-29T00:49:12;8.50;93.60
30999;DHT22;20549;50.042;8.968;2022-09-29T00:51:33;8.50;93.80
30999;DHT22;20549;50.042;8.968;2022-09-29T00:53:59;8.50;94.10
30999;DHT22;20549;50.042;8.968;2022-09-29T00:56:26;8.40;94.50
30999;DHT22;20549;50.042;8.968;2022-09-29T00:58:56;8.50;95.00
30999;DHT22;20549;50.042;8.968;2022-09-29T01:01:22;8.50;95.40
30999;DHT22;20549;50.042;8.968;2022-09-29T01:03:49;8.50;95.70
30999;DHT22;20549;50.042;8.968;2022-09-29T01:06:16;8.60;96.00
30999;DHT22;20549;50.042;8.968;2022-09-29T01:08:53;8.60;96.10
30999;DHT22;20549;50.042;8.968;2022-09-29T01:11:09;8.70;96.30
30999;DHT22;20549;50.042;8.968;2022-09-29T01:13:35;8.70;96.30
30999;DHT22;20549;50.042;8.968;2022-09-29T01:16:01;8.70;96.20
30999;DHT22;20549;50.042;8.968;2022-09-29T01:18:28;8.80;96.10
30999;DHT22;20549;50.042;8.968;2022-09-29T01:21:05;8.80;95.90
30999;DHT22;20549;50.042;8.968;2022-09-29T01:28:51;8.80;95.50
30999;DHT22;20549;50.042;8.968;2022-09-29T01:41:46;8.60;95.60
30999;DHT22;20549;50.042;8.968;2022-09-29T01:44:48;8.60;95.60
30999;DHT22;20549;50.042;8.968;2022-09-29T01:47:02;8.60;95.80
30999;DHT22;20549;50.042;8.968;2022-09-29T01:49:28;8.50;95.80
30999;DHT22;20549;50.042;8.968;2022-09-29T01:52:00;8.50;96.00
30999;DHT22;20549;50.042;8.968;2022-09-29T01:54:29;8.50;96.10
30999;DHT22;20549;50.042;8.968;2022-09-29T01:57:08;8.50;96.30
30999;DHT22;20549;50.042;8.968;2022-09-29T01:59:44;8.50;96.30
30999;DHT22;20549;50.042;8.968;2022-09-29T02:02:11;8.40;96.30
30999;DHT22;20549;50.042;8.968;2022-09-29T02:04:37;8.40;96.30
30999;DHT22;20549;50.042;8.968;2022-09-29T02:07:03;8.40;96.40
30999;DHT22;20549;50.042;8.968;2022-09-29T02:09:29;8.40;96.40
30999;DHT22;20549;50.042;8.968;2022-09-29T02:11:55;8.40;96.60
30999;DHT22;20549;50.042;8.968;2022-09-29T02:14:22;8.30;96.60
30999;DHT22;20549;50.042;8.968;2022-09-29T02:16:51;8.30;96.70
30999;DHT22;20549;50.042;8.968;2022-09-29T02:19:21;8.30;96.80
30999;DHT22;20549;50.042;8.968;2022-09-29T02:21:47;8.30;97.20
30999;DHT22;20549;50.042;8.968;2022-09-29T02:24:14;8.30;96.90
30999;DHT22;20549;50.042;8.968;2022-09-29T02:26:40;8.20;96.90
30999;DHT22;20549;50.042;8.968;2022-09-29T02:29:07;8.20;97.00
30999;DHT22;20549;50.042;8.968;2022-09-29T02:31:34;8.20;97.20
30999;DHT22;20549;50.042;8.968;2022-09-29T02:34:00;8.20;97.30
30999;DHT22;20549;50.042;8.968;2022-09-29T02:36:46;8.20;97.40
30999;DHT22;20549;50.042;8.968;2022-09-29T02:41:45;8.20;97.40
30999;DHT22;20549;50.042;8.968;2022-09-29T02:44:15;8.20;97.60
30999;DHT22;20549;50.042;8.968;2022-09-29T02:46:52;8.20;97.50
30999;DHT22;20549;50.042;8.968;2022-09-29T02:51:49;8.20;97.60
30999;DHT22;20549;50.042;8.968;2022-09-29T03:02:22;8.10;97.80
30999;DHT22;20549;50.042;8.968;2022-09-29T03:04:43;8.10;97.70
30999;DHT22;20549;50.042;8.968;2022-09-29T03:07:09;8.10;97.80
30999;DHT22;20549;50.042;8.968;2022-09-29T03:09:36;8.00;97.90
30999;DHT22;20549;50.042;8.968;2022-09-29T03:12:02;8.00;98.10
30999;DHT22;20549;50.042;8.968;2022-09-29T03:14:29;8.00;98.30
30999;DHT22;20549;50.042;8.968;2022-09-29T03:16:56;8.00;98.40
30999;DHT22;20549;50.042;8.968;2022-09-29T03:19:22;8.00;98.50
30999;DHT22;20549;50.042;8.968;2022-09-29T03:21:49;8.00;98.60
30999;DHT22;20549;50.042;8.968;2022-09-29T03:24:15;8.00;98.70
30999;DHT22;20549;50.042;8.968;2022-09-29T03:26:42;8.00;98.70
30999;DHT22;20549;50.042;8.968;2022-09-29T03:29:09;8.10;98.70
30999;DHT22;20549;50.042;8.968;2022-09-29T03:31:35;8.00;98.70
30999;DHT22;20549;50.042;8.968;2022-09-29T03:34:02;8.10;98.70
30999;DHT22;20549;50.042;8.968;2022-09-29T03:36:28;8.10;98.80
30999;DHT22;20549;50.042;8.968;2022-09-29T03:38:55;8.10;99.00
30999;DHT22;20549;50.042;8.968;2022-09-29T03:41:21;8.10;99.10
30999;DHT22;20549;50.042;8.968;2022-09-29T03:43:48;8.10;99.10
30999;DHT22;20549;50.042;8.968;2022-09-29T03:46:15;8.10;99.20
30999;DHT22;20549;50.042;8.968;2022-09-29T03:48:41;8.10;99.30
30999;DHT22;20549;50.042;8.968;2022-09-29T03:51:08;8.10;99.30
30999;DHT22;20549;50.042;8.968;2022-09-29T03:53:34;8.10;99.20
30999;DHT22;20549;50.042;8.968;2022-09-29T03:56:01;8.10;99.30
30999;DHT22;20549;50.042;8.968;2022-09-29T03:58:28;8.10;99.20
30999;DHT22;20549;50.042;8.968;2022-09-29T04:00:54;8.10;99.30
30999;DHT22;20549;50.042;8.968;2022-09-29T04:03:21;8.10;99.40
30999;DHT22;20549;50.042;8.968;2022-09-29T04:05:47;8.10;99.50
30999;DHT22;20549;50.042;8.968;2022-09-29T04:08:14;8.10;99.60
30999;DHT22;20549;50.042;8.968;2022-09-29T04:10:41;8.10;99.80
30999;DHT22;20549;50.042;8.968;2022-09-29T04:13:07;8.20;99.90
30999;DHT22;20549;50.042;8.968;2022-09-29T04:15:34;8.20;99.90
30999;DHT22;20549;50.042;8.968;2022-09-29T04:18:00;8.20;99.90
30999;DHT22;20549;50.042;8.968;2022-09-29T04:20:27;8.20;99.90
30999;DHT22;20549;50.042;8.968;2022-09-29T04:22:53;8.30;99.90
30999;DHT22;20549;50.042;8.968;2022-09-29T04:25:20;8.30;99.90
30999;DHT22;20549;50.042;8.968;2022-09-29T04:27:47;8.30;99.90
30999;DHT22;20549;50.042;8.968;2022-09-29T04:30:13;8.30;99.90
30999;DHT22;20549;50.042;8.968;2022-09-29T04:32:40;8.40;99.90
30999;DHT22;20549;50.042;8.968;2022-09-29T04:35:08;8.40;99.90
30999;DHT22;20549;50.042;8.968;2022-09-29T04:37:34;8.40;99.90
30999;DHT22;20549;50.042;8.968;2022-09-29T04:40:02;8.50;99.90
30999;DHT22;20549;50.042;8.968;2022-09-29T04:42:28;8.50;99.90
30999;DHT22;20549;50.042;8.968;2022-09-29T04:44:54;8.60;99.90
30999;DHT22;20549;50.042;8.968;2022-09-29T04:47:21;8.60;99.90
30999;DHT22;20549;50.042;8.968;2022-09-29T04:49:47;8.60;99.90
30999;DHT22;20549;50.042;8.968;2022-09-29T04:52:14;8.70;99.90
30999;DHT22;20549;50.042;8.968;2022-09-29T04:54:40;8.70;99.90
30999;DHT22;20549;50.042;8.968;2022-09-29T04:57:08;8.70;99.90
30999;DHT22;20549;50.042;8.968;2022-09-29T04:59:34;8.80;99.90
30999;DHT22;20549;50.042;8.968;2022-09-29T05:02:00;8.80;99.90
30999;DHT22;20549;50.042;8.968;2022-09-29T05:04:27;8.80;99.90
30999;DHT22;20549;50.042;8.968;2022-09-29T05:06:53;8.90;99.90
30999;DHT22;20549;50.042;8.968;2022-09-29T05:09:20;8.90;99.90
30999;DHT22;20549;50.042;8.968;2022-09-29T05:11:47;8.90;99.90
30999;DHT22;20549;50.042;8.968;2022-09-29T05:14:13;8.90;99.90
30999;DHT22;20549;50.042;8.968;2022-09-29T05:16:40;9.00;99.90
30999;DHT22;20549;50.042;8.968;2022-09-29T05:19:06;9.00;99.90
30999;DHT22;20549;50.042;8.968;2022-09-29T05:21:33;9.00;99.90
30999;DHT22;20549;50.042;8.968;2022-09-29T05:23:59;9.00;99.90
30999;DHT22;20549;50.042;8.968;2022-09-29T05:26:26;9.10;99.90
30999;DHT22;20549;50.042;8.968;2022-09-29T05:28:53;9.10;99.90
30999;DHT22;20549;50.042;8.968;2022-09-29T05:31:19;9.10;99.90
30999;DHT22;20549;50.042;8.968;2022-09-29T05:33:46;9.20;99.90
30999;DHT22;20549;50.042;8.968;2022-09-29T05:36:12;9.20;99.90
30999;DHT22;20549;50.042;8.968;2022-09-29T05:38:39;9.20;99.90
30999;DHT22;20549;50.042;8.968;2022-09-29T05:41:06;9.20;99.90
30999;DHT22;20549;50.042;8.968;2022-09-29T05:43:32;9.30;99.90
30999;DHT22;20549;50.042;8.968;2022-09-29T05:46:03;9.30;99.90
30999;DHT22;20549;50.042;8.968;2022-09-29T05:48:28;9.40;99.90
30999;DHT22;20549;50.042;8.968;2022-09-29T05:50:58;9.50;99.90
30999;DHT22;20549;50.042;8.968;2022-09-29T05:53:24;9.60;99.90
30999;DHT22;20549;50.042;8.968;2022-09-29T05:55:51;9.80;99.90
30999;DHT22;20549;50.042;8.968;2022-09-29T05:58:17;9.90;99.90
30999;DHT22;20549;50.042;8.968;2022-09-29T06:00:44;10.10;99.90
30999;DHT22;20549;50.042;8.968;2022-09-29T06:03:10;10.30;99.90
30999;DHT22;20549;50.042;8.968;2022-09-29T06:05:37;10.60;99.90
30999;DHT22;20549;50.042;8.968;2022-09-29T06:08:03;10.80;99.90
30999;DHT22;20549;50.042;8.968;2022-09-29T06:10:30;11.10;99.90
30999;DHT22;20549;50.042;8.968;2022-09-29T06:12:57;11.50;99.90
30999;DHT22;20549;50.042;8.968;2022-09-29T06:15:29;11.90;99.90
30999;DHT22;20549;50.042;8.968;2022-09-29T06:17:59;12.30;99.90
30999;DHT22;20549;50.042;8.968;2022-09-29T06:20:25;12.70;99.90
30999;DHT22;20549;50.042;8.968;2022-09-29T06:22:52;13.10;99.90
30999;DHT22;20549;50.042;8.968;2022-09-29T06:25:18;13.40;99.90
30999;DHT22;20549;50.042;8.968;2022-09-29T06:27:45;13.60;99.90
30999;DHT22;20549;50.042;8.968;2022-09-29T06:30:12;13.80;98.20
30999;DHT22;20549;50.042;8.968;2022-09-29T06:32:39;13.80;96.40
30999;DHT22;20549;50.042;8.968;2022-09-29T06:35:05;13.80;95.20
30999;DHT22;20549;50.042;8.968;2022-09-29T06:37:50;13.80;94.50
30999;DHT22;20549;50.042;8.968;2022-09-29T06:40:16;13.70;94.20
30999;DHT22;20549;50.042;8.968;2022-09-29T06:42:43;13.70;94.10
30999;DHT22;20549;50.042;8.968;2022-09-29T06:45:10;13.60;94.20
30999;DHT22;20549;50.042;8.968;2022-09-29T06:47:36;13.60;94.20
30999;DHT22;20549;50.042;8.968;2022-09-29T06:50:03;13.50;94.60
30999;DHT22;20549;50.042;8.968;2022-09-29T06:52:29;13.50;94.80
30999;DHT22;20549;50.042;8.968;2022-09-29T06:54:56;13.60;95.20
30999;DHT22;20549;50.042;8.968;2022-09-29T06:57:23;13.60;95.70
30999;DHT22;20549;50.042;8.968;2022-09-29T06:59:52;13.80;96.80
30999;DHT22;20549;50.042;8.968;2022-09-29T07:02:16;14.00;97.60
30999;DHT22;20549;50.042;8.968;2022-09-29T07:04:42;14.20;97.10
30999;DHT22;20549;50.042;8.968;2022-09-29T07:07:09;14.40;96.30
30999;DHT22;20549;50.042;8.968;2022-09-29T07:09:35;14.50;94.90
30999;DHT22;20549;50.042;8.968;2022-09-29T07:12:02;14.60;93.90
30999;DHT22;20549;50.042;8.968;2022-09-29T07:14:29;14.70;93.70
30999;DHT22;20549;50.042;8.968;2022-09-29T07:16:55;14.90;94.50
30999;DHT22;20549;50.042;8.968;2022-09-29T07:19:25;15.20;95.90
30999;DHT22;20549;50.042;8.968;2022-09-29T07:21:51;15.50;97.30
30999;DHT22;20549;50.042;8.968;2022-09-29T07:24:18;16.10;98.70
30999;DHT22;20549;50.042;8.968;2022-09-29T07:26:44;16.70;98.80
30999;DHT22;20549;50.042;8.968;2022-09-29T07:29:11;17.30;96.80
30999;DHT22;20549;50.042;8.968;2022-09-29T07:31:38;17.80;94.10
30999;DHT22;20549;50.042;8.968;2022-09-29T07:34:04;18.30;91.60
30999;DHT22;20549;50.042;8.968;2022-09-29T07:36:31;18.60;90.00
30999;DHT22;20549;50.042;8.968;2022-09-29T07:38:57;19.00;87.90
30999;DHT22;20549;50.042;8.968;2022-09-29T07:41:24;19.30;87.20
30999;DHT22;20549;50.042;8.968;2022-09-29T07:43:50;19.50;84.80
30999;DHT22;20549;50.042;8.968;2022-09-29T07:46:20;19.80;82.80
30999;DHT22;20549;50.042;8.968;2022-09-29T07:48:47;19.90;80.40
30999;DHT22;20549;50.042;8.968;2022-09-29T07:51:14;20.10;78.80
30999;DHT22;20549;50.042;8.968;2022-09-29T07:53:40;20.20;77.10
30999;DHT22;20549;50.042;8.968;2022-09-29T07:58:39;20.20;74.90
30999;DHT22;20549;50.042;8.968;2022-09-29T08:01:06;20.20;74.20
30999;DHT22;20549;50.042;8.968;2022-09-29T08:03:32;20.20;73.60
30999;DHT22;20549;50.042;8.968;2022-09-29T08:05:59;20.10;73.00
30999;DHT22;20549;50.042;8.968;2022-09-29T08:08:25;20.10;72.40
30999;DHT22;20549;50.042;8.968;2022-09-29T08:10:59;20.00;72.10
30999;DHT22;20549;50.042;8.968;2022-09-29T08:13:19;19.90;72.10
30999;DHT22;20549;50.042;8.968;2022-09-29T08:15:45;19.90;72.70
30999;DHT22;20549;50.042;8.968;2022-09-29T08:18:12;20.00;73.90
30999;DHT22;20549;50.042;8.968;2022-09-29T08:20:38;20.30;76.00
30999;DHT22;20549;50.042;8.968;2022-09-29T08:23:05;20.60;77.20
30999;DHT22;20549;50.042;8.968;2022-09-29T08:25:32;21.10;77.10
30999;DHT22;20549;50.042;8.968;2022-09-29T08:27:58;21.60;76.00
30999;DHT22;20549;50.042;8.968;2022-09-29T08:30:25;22.00;74.00
30999;DHT22;20549;50.042;8.968;2022-09-29T08:32:54;22.30;72.20
30999;DHT22;20549;50.042;8.968;2022-09-29T08:35:21;22.60;70.50
30999;DHT22;20549;50.042;8.968;2022-09-29T08:37:47;22.70;68.90
30999;DHT22;20549;50.042;8.968;2022-09-29T08:40:14;22.70;67.50
30999;DHT22;20549;50.042;8.968;2022-09-29T08:42:55;22.70;66.60
30999;DHT22;20549;50.042;8.968;2022-09-29T08:45:28;22.70;66.30
30999;DHT22;20549;50.042;8.968;2022-09-29T08:47:55;22.70;66.70
30999;DHT22;20549;50.042;8.968;2022-09-29T08:50:34;22.80;67.10
30999;DHT22;20549;50.042;8.968;2022-09-29T08:53:08;22.90;67.00
30999;DHT22;20549;50.042;8.968;2022-09-29T08:58:06;23.20;66.50
30999;DHT22;20549;50.042;8.968;2022-09-29T09:00:34;23.40;65.70
30999;DHT22;20549;50.042;8.968;2022-09-29T09:03:20;23.60;65.00
30999;DHT22;20549;50.042;8.968;2022-09-29T09:05:50;23.70;64.80
30999;DHT22;20549;50.042;8.968;2022-09-29T09:11:08;23.90;63.70
30999;DHT22;20549;50.042;8.968;2022-09-29T09:13:40;24.10;63.60
30999;DHT22;20549;50.042;8.968;2022-09-29T09:21:42;24.70;63.90
30999;DHT22;20549;50.042;8.968;2022-09-29T09:24:27;25.10;63.90
30999;DHT22;20549;50.042;8.968;2022-09-29T09:26:52;25.40;63.00
30999;DHT22;20549;50.042;8.968;2022-09-29T09:32:08;25.70;59.30
30999;DHT22;20549;50.042;8.968;2022-09-29T09:34:31;25.70;58.60
30999;DHT22;20549;50.042;8.968;2022-09-29T09:36:57;25.50;57.50
30999;DHT22;20549;50.042;8.968;2022-09-29T09:39:32;25.30;57.30
30999;DHT22;20549;50.042;8.968;2022-09-29T09:41:58;25.00;57.60
30999;DHT22;20549;50.042;8.968;2022-09-29T09:44:40;24.70;57.50
30999;DHT22;20549;50.042;8.968;2022-09-29T09:47:28;24.50;57.50
30999;DHT22;20549;50.042;8.968;2022-09-29T09:49:59;24.20;57.90
30999;DHT22;20549;50.042;8.968;2022-09-29T09:52:21;24.00;58.10
30999;DHT22;20549;50.042;8.968;2022-09-29T09:54:48;23.80;58.10
30999;DHT22;20549;50.042;8.968;2022-09-29T10:00:06;23.50;57.70
30999;DHT22;20549;50.042;8.968;2022-09-29T10:02:30;23.30;57.90
30999;DHT22;20549;50.042;8.968;2022-09-29T10:04:57;23.10;58.20
30999;DHT22;20549;50.042;8.968;2022-09-29T10:07:24;23.00;58.00
30999;DHT22;20549;50.042;8.968;2022-09-29T10:09:50;22.90;58.10
30999;DHT22;20549;50.042;8.968;2022-09-29T10:12:17;22.70;58.00
30999;DHT22;20549;50.042;8.968;2022-09-29T10:14:51;22.60;58.10
30999;DHT22;20549;50.042;8.968;2022-09-29T10:17:16;22.40;58.10
30999;DHT22;20549;50.042;8.968;2022-09-29T10:22:21;22.10;58.30
30999;DHT22;20549;50.042;8.968;2022-09-29T10:24:47;22.00;58.60
30999;DHT22;20549;50.042;8.968;2022-09-29T10:27:17;21.90;58.80
30999;DHT22;20549;50.042;8.968;2022-09-29T10:29:47;21.80;58.90
30999;DHT22;20549;50.042;8.968;2022-09-29T10:32:21;21.80;59.10
30999;DHT22;20549;50.042;8.968;2022-09-29T10:34:46;21.70;59.00
30999;DHT22;20549;50.042;8.968;2022-09-29T10:37:22;21.60;58.90
30999;DHT22;20549;50.042;8.968;2022-09-29T10:39:51;21.50;58.90
30999;DHT22;20549;50.042;8.968;2022-09-29T10:42:36;21.40;58.90
30999;DHT22;20549;50.042;8.968;2022-09-29T10:45:12;21.30;59.00
30999;DHT22;20549;50.042;8.968;2022-09-29T10:47:37;21.20;59.10
30999;DHT22;20549;50.042;8.968;2022-09-29T10:55:22;21.00;59.60
30999;DHT22;20549;50.042;8.968;2022-09-29T10:57:48;21.00;59.90
30999;DHT22;20549;50.042;8.968;2022-09-29T11:00:33;20.90;60.00
30999;DHT22;20549;50.042;8.968;2022-09-29T11:03:18;20.90;60.00
30999;DHT22;20549;50.042;8.968;2022-09-29T11:05:34;20.90;60.00
30999;DHT22;20549;50.042;8.968;2022-09-29T11:08:01;20.90;59.80
30999;DHT22;20549;50.042;8.968;2022-09-29T11:12:57;20.90;59.70
30999;DHT22;20549;50.042;8.968;2022-09-29T11:17:53;21.00;59.70
30999;DHT22;20549;50.042;8.968;2022-09-29T11:20:19;21.00;59.60
30999;DHT22;20549;50.042;8.968;2022-09-29T11:23:07;21.00;59.70
30999;DHT22;20549;50.042;8.968;2022-09-29T11:25:35;21.00;59.60
30999;DHT22;20549;50.042;8.968;2022-09-29T11:30:55;21.00;59.60
30999;DHT22;20549;50.042;8.968;2022-09-29T11:33:28;21.00;59.70
30999;DHT22;20549;50.042;8.968;2022-09-29T11:35:53;21.00;59.40
30999;DHT22;20549;50.042;8.968;2022-09-29T11:41:12;21.00;59.00
30999;DHT22;20549;50.042;8.968;2022-09-29T11:49:41;21.20;58.70
30999;DHT22;20549;50.042;8.968;2022-09-29T12:00:13;21.40;58.00
30999;DHT22;20549;50.042;8.968;2022-09-29T12:03:05;21.30;58.00
30999;DHT22;20549;50.042;8.968;2022-09-29T12:10:53;21.30;58.10
30999;DHT22;20549;50.042;8.968;2022-09-29T12:13:36;21.30;58.30
30999;DHT22;20549;50.042;8.968;2022-09-29T12:16:03;21.30;58.40
30999;DHT22;20549;50.042;8.968;2022-09-29T12:18:34;21.30;58.50
30999;DHT22;20549;50.042;8.968;2022-09-29T12:20:58;21.30;58.20
30999;DHT22;20549;50.042;8.968;2022-09-29T12:23:25;21.30;58.00
30999;DHT22;20549;50.042;8.968;2022-09-29T12:26:01;21.30;57.90
30999;DHT22;20549;50.042;8.968;2022-09-29T12:28:22;21.20;57.70
30999;DHT22;20549;50.042;8.968;2022-09-29T12:30:54;21.20;57.50
30999;DHT22;20549;50.042;8.968;2022-09-29T12:38:35;21.00;57.50
30999;DHT22;20549;50.042;8.968;2022-09-29T12:41:13;20.90;57.50
30999;DHT22;20549;50.042;8.968;2022-09-29T12:43:47;20.90;57.60
30999;DHT22;20549;50.042;8.968;2022-09-29T12:46:30;20.90;57.80
30999;DHT22;20549;50.042;8.968;2022-09-29T12:49:21;20.80;57.60
30999;DHT22;20549;50.042;8.968;2022-09-29T12:51:47;20.80;57.50
30999;DHT22;20549;50.042;8.968;2022-09-29T12:57:05;20.70;57.00
30999;DHT22;20549;50.042;8.968;2022-09-29T12:59:35;20.60;56.90
30999;DHT22;20549;50.042;8.968;2022-09-29T13:02:00;20.60;56.80
30999;DHT22;20549;50.042;8.968;2022-09-29T13:07:43;20.50;56.90
30999;DHT22;20549;50.042;8.968;2022-09-29T13:12:26;20.50;56.80
30999;DHT22;20549;50.042;8.968;2022-09-29T13:17:36;20.50;57.00
30999;DHT22;20549;50.042;8.968;2022-09-29T13:28:03;20.70;56.80
30999;DHT22;20549;50.042;8.968;2022-09-29T13:30:32;20.70;56.60
30999;DHT22;20549;50.042;8.968;2022-09-29T13:33:01;20.70;56.40
30999;DHT22;20549;50.042;8.968;2022-09-29T13:35:26;20.80;56.30
30999;DHT22;20549;50.042;8.968;2022-09-29T13:38:02;20.80;56.10
30999;DHT22;20549;50.042;8.968;2022-09-29T13:43:15;20.80;55.70
30999;DHT22;20549;50.042;8.968;2022-09-29T13:45:38;20.80;55.70
30999;DHT22;20549;50.042;8.968;2022-09-29T13:50:52;20.70;55.90
30999;DHT22;20549;50.042;8.968;2022-09-29T13:56:16;20.80;56.00
30999;DHT22;20549;50.042;8.968;2022-09-29T14:01:27;20.80;56.00
30999;DHT22;20549;50.042;8.968;2022-09-29T14:03:41;20.80;56.00
30999;DHT22;20549;50.042;8.968;2022-09-29T14:06:13;20.70;56.00
30999;DHT22;20549;50.042;8.968;2022-09-29T14:08:42;20.80;55.90
30999;DHT22;20549;50.042;8.968;2022-09-29T14:11:17;20.70;55.90
30999;DHT22;20549;50.042;8.968;2022-09-29T14:18:56;20.80;55.70
30999;DHT22;20549;50.042;8.968;2022-09-29T14:21:45;20.80;55.50
30999;DHT22;20549;50.042;8.968;2022-09-29T14:32:32;20.70;55.00
30999;DHT22;20549;50.042;8.968;2022-09-29T14:34:54;20.70;55.20
30999;DHT22;20549;50.042;8.968;2022-09-29T14:37:21;20.70;55.00
30999;DHT22;20549;50.042;8.968;2022-09-29T14:39:47;20.60;54.50
30999;DHT22;20549;50.042;8.968;2022-09-29T14:42:14;20.60;54.20
30999;DHT22;20549;50.042;8.968;2022-09-29T14:44:40;20.50;54.10
30999;DHT22;20549;50.042;8.968;2022-09-29T14:47:36;20.40;54.20
30999;DHT22;20549;50.042;8.968;2022-09-29T14:50:28;20.30;54.40
30999;DHT22;20549;50.042;8.968;2022-09-29T14:53:19;20.20;54.50
30999;DHT22;20549;50.042;8.968;2022-09-29T14:58:29;20.00;54.60
30999;DHT22;20549;50.042;8.968;2022-09-29T15:01:24;20.00;54.80
30999;DHT22;20549;50.042;8.968;2022-09-29T15:03:48;19.90;54.60
30999;DHT22;20549;50.042;8.968;2022-09-29T15:06:14;19.80;54.50
30999;DHT22;20549;50.042;8.968;2022-09-29T15:08:41;19.70;54.40
30999;DHT22;20549;50.042;8.968;2022-09-29T15:11:29;19.70;54.20
30999;DHT22;20549;50.042;8.968;2022-09-29T15:13:54;19.60;54.10
30999;DHT22;20549;50.042;8.968;2022-09-29T15:16:41;19.50;54.30
30999;DHT22;20549;50.042;8.968;2022-09-29T15:19:08;19.40;53.80
30999;DHT22;20549;50.042;8.968;2022-09-29T15:24:45;19.20;54.20
30999;DHT22;20549;50.042;8.968;2022-09-29T15:26:47;19.10;54.40
30999;DHT22;20549;50.042;8.968;2022-09-29T15:29:14;19.00;54.50
30999;DHT22;20549;50.042;8.968;2022-09-29T15:31:42;18.90;54.60
30999;DHT22;20549;50.042;8.968;2022-09-29T15:34:08;18.80;54.60
30999;DHT22;20549;50.042;8.968;2022-09-29T15:36:37;18.70;54.80
30999;DHT22;20549;50.042;8.968;2022-09-29T15:39:00;18.60;54.90
30999;DHT22;20549;50.042;8.968;2022-09-29T15:41:26;18.50;54.90
30999;DHT22;20549;50.042;8.968;2022-09-29T15:44:07;18.40;55.10
30999;DHT22;20549;50.042;8.968;2022-09-29T15:49:14;18.20;55.30
30999;DHT22;20549;50.042;8.968;2022-09-29T15:51:40;18.10;55.50
30999;DHT22;20549;50.042;8.968;2022-09-29T15:54:06;18.10;55.60
30999;DHT22;20549;50.042;8.968;2022-09-29T15:56:36;18.00;55.50
30999;DHT22;20549;50.042;8.968;2022-09-29T15:59:32;18.00;55.60
30999;DHT22;20549;50.042;8.968;2022-09-29T16:01:47;17.90;55.60
30999;DHT22;20549;50.042;8.968;2022-09-29T16:04:14;17.90;55.70
30999;DHT22;20549;50.042;8.968;2022-09-29T16:06:42;17.80;56.20
30999;DHT22;20549;50.042;8.968;2022-09-29T16:09:12;17.70;56.40
30999;DHT22;20549;50.042;8.968;2022-09-29T16:11:34;17.60;56.70
30999;DHT22;20549;50.042;8.968;2022-09-29T16:14:22;17.50;57.00
30999;DHT22;20549;50.042;8.968;2022-09-29T16:16:48;17.40;57.20
30999;DHT22;20549;50.042;8.968;2022-09-29T16:19:27;17.30;57.30
30999;DHT22;20549;50.042;8.968;2022-09-29T16:21:57;17.20;57.60
30999;DHT22;20549;50.042;8.968;2022-09-29T16:24:23;17.10;57.70
30999;DHT22;20549;50.042;8.968;2022-09-29T16:26:52;17.00;57.90
30999;DHT22;20549;50.042;8.968;2022-09-29T16:31:46;16.80;58.30
30999;DHT22;20549;50.042;8.968;2022-09-29T16:34:22;16.70;58.40
30999;DHT22;20549;50.042;8.968;2022-09-29T16:36:54;16.60;58.60
30999;DHT22;20549;50.042;8.968;2022-09-29T16:39:26;16.50;58.60
30999;DHT22;20549;50.042;8.968;2022-09-29T16:41:53;16.40;58.80
30999;DHT22;20549;50.042;8.968;2022-09-29T16:44:30;16.30;59.00
30999;DHT22;20549;50.042;8.968;2022-09-29T16:47:00;16.20;59.10
30999;DHT22;20549;50.042;8.968;2022-09-29T16:49:29;16.10;59.20
30999;DHT22;20549;50.042;8.968;2022-09-29T16:51:56;15.90;59.30
30999;DHT22;20549;50.042;8.968;2022-09-29T16:54:29;15.80;59.40
30999;DHT22;20549;50.042;8.968;2022-09-29T16:59:46;15.60;59.80
30999;DHT22;20549;50.042;8.968;2022-09-29T17:02:12;15.50;59.90
30999;DHT22;20549;50.042;8.968;2022-09-29T17:04:39;15.30;60.00
30999;DHT22;20549;50.042;8.968;2022-09-29T17:07:07;15.20;60.30
30999;DHT22;20549;50.042;8.968;2022-09-29T17:09:32;15.10;60.60
30999;DHT22;20549;50.042;8.968;2022-09-29T17:11:59;15.10;60.70
30999;DHT22;20549;50.042;8.968;2022-09-29T17:14:25;14.90;60.90
30999;DHT22;20549;50.042;8.968;2022-09-29T17:16:52;14.90;61.10
30999;DHT22;20549;50.042;8.968;2022-09-29T17:19:18;14.80;61.30
30999;DHT22;20549;50.042;8.968;2022-09-29T17:21:45;14.70;61.50
30999;DHT22;20549;50.042;8.968;2022-09-29T17:24:11;14.60;61.70
30999;DHT22;20549;50.042;8.968;2022-09-29T17:26:39;14.50;61.90
30999;DHT22;20549;50.042;8.968;2022-09-29T17:29:23;14.50;62.10
30999;DHT22;20549;50.042;8.968;2022-09-29T17:31:49;14.40;62.40
30999;DHT22;20549;50.042;8.968;2022-09-29T17:34:16;14.30;62.50
30999;DHT22;20549;50.042;8.968;2022-09-29T17:36:42;14.30;63.00
30999;DHT22;20549;50.042;8.968;2022-09-29T17:39:09;14.20;63.00
30999;DHT22;20549;50.042;8.968;2022-09-29T17:41:36;14.10;63.20
30999;DHT22;20549;50.042;8.968;2022-09-29T17:44:02;14.10;63.40
30999;DHT22;20549;50.042;8.968;2022-09-29T17:46:29;14.00;63.60
30999;DHT22;20549;50.042;8.968;2022-09-29T17:48:55;13.90;63.80
30999;DHT22;20549;50.042;8.968;2022-09-29T17:51:22;13.80;64.10
30999;DHT22;20549;50.042;8.968;2022-09-29T17:53:49;13.70;64.30
30999;DHT22;20549;50.042;8.968;2022-09-29T17:56:24;13.70;64.40
30999;DHT22;20549;50.042;8.968;2022-09-29T17:58:51;13.60;64.60
30999;DHT22;20549;50.042;8.968;2022-09-29T18:01:18;13.50;64.60
30999;DHT22;20549;50.042;8.968;2022-09-29T18:03:44;13.40;64.90
30999;DHT22;20549;50.042;8.968;2022-09-29T18:06:14;13.40;65.20
30999;DHT22;20549;50.042;8.968;2022-09-29T18:08:37;13.30;65.50
30999;DHT22;20549;50.042;8.968;2022-09-29T18:11:03;13.20;65.70